createdAt,value
2023-05-10T00:00:24.783Z,54.60
2023-05-10T00:02:51.781Z,54.60
2023-05-10T00:05:19.832Z,54.70
2023-05-10T00:07:46.670Z,56.70
2023-05-10T00:10:14.125Z,57.30
2023-05-10T00:12:41.293Z,57.60
2023-05-10T00:15:09.266Z,58.40
2023-05-10T00:17:36.429Z,59.10
2023-05-10T00:20:05.795Z,59.10
2023-05-10T00:22:33.386Z,58.90
2023-05-10T00:25:00.616Z,59.90
2023-05-10T00:27:27.361Z,60.30
2023-05-10T00:29:54.131Z,59.50
2023-05-10T00:32:21.716Z,60.40
2023-05-10T00:34:48.603Z,61.10
2023-05-10T00:37:15.365Z,60.50
2023-05-10T00:39:42.155Z,60.90
2023-05-10T00:42:08.963Z,61.30
2023-05-10T00:44:35.786Z,62.00
2023-05-10T00:47:02.686Z,62.40
2023-05-10T00:49:29.784Z,62.80
2023-05-10T00:51:56.857Z,63.00
2023-05-10T00:54:23.751Z,63.00
2023-05-10T00:56:50.725Z,62.90
2023-05-10T00:59:18.798Z,62.90
2023-05-10T01:01:46.858Z,63.30
2023-05-10T01:04:14.982Z,63.40
2023-05-10T01:06:42.831Z,64.60
2023-05-10T01:09:10.642Z,63.80
2023-05-10T01:11:39.511Z,65.80
2023-05-10T01:14:07.047Z,65.30
2023-05-10T01:16:38.304Z,66.10
2023-05-10T01:19:20.743Z,66.00
2023-05-10T01:22:03.144Z,65.70
2023-05-10T01:24:47.921Z,65.60
2023-05-10T01:27:46.833Z,66.80
2023-05-10T01:30:31.691Z,66.40
2023-05-10T01:33:24.265Z,67.50
2023-05-10T01:36:00.281Z,68.20
2023-05-10T01:38:40.164Z,67.50
2023-05-10T01:41:19.415Z,68.30
2023-05-10T01:44:08.438Z,68.70
2023-05-10T01:46:38.519Z,68.50
2023-05-10T01:49:11.580Z,69.50
2023-05-10T01:51:53.065Z,69.40
2023-05-10T01:54:22.688Z,69.50
2023-05-10T01:56:56.023Z,70.60
2023-05-10T01:59:28.321Z,70.90
2023-05-10T02:01:58.208Z,71.00
2023-05-10T02:04:26.212Z,71.60
2023-05-10T02:06:55.303Z,72.20
2023-05-10T02:09:23.388Z,71.80
2023-05-10T02:11:51.226Z,72.20
2023-05-10T02:14:19.547Z,72.80
2023-05-10T02:16:47.306Z,73.00
2023-05-10T02:19:15.931Z,73.00
2023-05-10T02:21:43.776Z,72.80
2023-05-10T02:24:11.694Z,72.90
2023-05-10T02:26:39.730Z,73.50
2023-05-10T02:29:07.866Z,73.30
2023-05-10T02:31:36.367Z,73.30
2023-05-10T02:34:04.946Z,73.50
2023-05-10T02:36:32.485Z,73.40
2023-05-10T02:39:01.908Z,73.40
2023-05-10T02:41:30.075Z,74.10
2023-05-10T02:44:00.280Z,73.70
2023-05-10T02:46:27.118Z,73.90
2023-05-10T02:48:54.020Z,74.10
2023-05-10T02:51:24.352Z,74.40
2023-05-10T02:53:54.504Z,74.30
2023-05-10T02:56:34.277Z,74.40
2023-05-10T02:59:01.250Z,73.90
2023-05-10T03:01:28.167Z,75.00
2023-05-10T03:03:55.147Z,75.00
2023-05-10T03:06:22.069Z,75.20
2023-05-10T03:08:48.904Z,75.10
2023-05-10T03:11:35.782Z,75.20
2023-05-10T03:14:02.990Z,74.60
2023-05-10T03:16:36.810Z,75.90
2023-05-10T03:19:18.706Z,75.80
2023-05-10T03:21:52.274Z,75.00
2023-05-10T03:24:23.354Z,75.80
2023-05-10T03:26:52.033Z,75.60
2023-05-10T03:29:19.366Z,75.60
2023-05-10T03:31:46.526Z,75.70
2023-05-10T03:34:13.426Z,75.70
2023-05-10T03:36:40.358Z,75.90
2023-05-10T03:39:07.081Z,75.70
2023-05-10T03:41:33.868Z,76.00
2023-05-10T03:44:00.643Z,75.80
2023-05-10T03:46:27.517Z,76.30
2023-05-10T03:48:54.360Z,75.90
2023-05-10T03:51:21.512Z,76.30
2023-05-10T03:53:48.237Z,76.20
2023-05-10T03:56:15.026Z,76.30
2023-05-10T03:58:41.801Z,76.40
2023-05-10T04:01:08.589Z,76.40
2023-05-10T04:03:37.524Z,76.10
2023-05-10T04:06:04.997Z,76.00
2023-05-10T04:08:32.193Z,76.20
2023-05-10T04:11:09.607Z,76.40
2023-05-10T04:13:36.792Z,75.90
2023-05-10T04:16:03.762Z,76.20
2023-05-10T04:18:30.902Z,76.30
2023-05-10T04:20:57.740Z,76.20
2023-05-10T04:23:24.615Z,76.40
2023-05-10T04:25:51.531Z,76.60
2023-05-10T04:28:18.553Z,76.50
2023-05-10T04:30:45.598Z,76.60
2023-05-10T04:33:12.767Z,76.70
2023-05-10T04:35:41.042Z,76.80
2023-05-10T04:38:08.061Z,77.00
2023-05-10T04:40:35.422Z,77.00
2023-05-10T04:43:02.499Z,77.20
2023-05-10T04:45:29.331Z,77.10
2023-05-10T04:47:56.164Z,77.10
2023-05-10T04:50:23.012Z,77.00
2023-05-10T04:52:49.845Z,77.20
2023-05-10T04:55:17.141Z,77.10
2023-05-10T04:57:44.087Z,76.70
2023-05-10T05:00:11.864Z,77.10
2023-05-10T05:02:38.756Z,76.90
2023-05-10T05:05:06.139Z,77.10
2023-05-10T05:07:32.964Z,76.90
2023-05-10T05:09:59.785Z,77.10
2023-05-10T05:12:26.675Z,77.20
2023-05-10T05:14:53.560Z,76.50
2023-05-10T05:17:20.351Z,76.90
2023-05-10T05:19:47.277Z,76.90
2023-05-10T05:22:14.168Z,77.00
2023-05-10T05:24:40.920Z,76.70
2023-05-10T05:27:07.959Z,76.20
2023-05-10T05:29:35.006Z,76.10
2023-05-10T05:32:01.891Z,76.40
2023-05-10T05:34:31.497Z,76.70
2023-05-10T05:36:58.312Z,76.80
2023-05-10T05:39:25.135Z,76.90
2023-05-10T05:41:51.980Z,76.90
2023-05-10T05:44:18.935Z,76.50
2023-05-10T05:46:45.856Z,76.50
2023-05-10T05:49:13.334Z,76.60
2023-05-10T05:51:43.010Z,76.60
2023-05-10T05:54:09.988Z,76.40
2023-05-10T05:56:37.025Z,76.50
2023-05-10T05:59:04.682Z,76.60
2023-05-10T06:01:31.575Z,76.40
2023-05-10T06:03:58.456Z,76.30
2023-05-10T06:06:25.400Z,76.60
2023-05-10T06:08:52.413Z,76.50
2023-05-10T06:11:22.020Z,76.30
2023-05-10T06:13:49.048Z,77.00
2023-05-10T06:16:15.961Z,77.30
2023-05-10T06:18:42.747Z,77.40
2023-05-10T06:21:10.414Z,77.30
2023-05-10T06:23:37.178Z,77.40
2023-05-10T06:26:04.245Z,77.10
2023-05-10T06:28:33.205Z,77.20
2023-05-10T06:31:00.434Z,77.30
2023-05-10T06:33:27.404Z,77.30
2023-05-10T06:35:54.215Z,77.20
2023-05-10T06:38:21.070Z,77.30
2023-05-10T06:40:47.845Z,77.30
2023-05-10T06:43:14.720Z,77.30
2023-05-10T06:45:41.988Z,77.30
2023-05-10T06:48:09.222Z,77.30
2023-05-10T06:50:36.331Z,77.00
2023-05-10T06:53:03.218Z,76.50
2023-05-10T06:55:30.304Z,76.70
2023-05-10T06:57:57.287Z,76.50
2023-05-10T07:00:24.499Z,76.60
2023-05-10T07:02:52.136Z,76.30
2023-05-10T07:05:21.462Z,76.70
2023-05-10T07:07:48.573Z,76.80
2023-05-10T07:10:15.495Z,76.50
2023-05-10T07:12:42.511Z,76.70
2023-05-10T07:15:10.359Z,76.30
2023-05-10T07:17:37.166Z,76.00
2023-05-10T07:20:04.697Z,76.30
2023-05-10T07:22:31.622Z,75.70
2023-05-10T07:24:58.452Z,75.50
2023-05-10T07:27:25.513Z,75.40
2023-05-10T07:29:52.333Z,74.20
2023-05-10T07:32:19.192Z,73.90
2023-05-10T07:34:46.216Z,73.50
2023-05-10T07:37:13.630Z,74.90
2023-05-10T07:39:40.597Z,74.10
2023-05-10T07:42:07.385Z,74.40
2023-05-10T07:44:34.208Z,72.80
2023-05-10T07:47:01.112Z,72.40
2023-05-10T07:49:27.919Z,72.50
2023-05-10T07:51:54.830Z,72.90
2023-05-10T07:54:21.639Z,72.80
2023-05-10T07:56:48.665Z,72.70
2023-05-10T07:59:20.341Z,72.90
2023-05-10T08:01:47.177Z,72.70
2023-05-10T08:04:14.095Z,72.00
2023-05-10T08:06:41.365Z,73.00
2023-05-10T08:09:08.429Z,72.20
2023-05-10T08:11:35.442Z,72.70
2023-05-10T08:14:02.309Z,72.20
2023-05-10T08:16:30.092Z,72.70
2023-05-10T08:18:57.002Z,71.20
2023-05-10T08:21:23.879Z,71.80
2023-05-10T08:23:50.768Z,71.30
2023-05-10T08:26:17.607Z,70.90
2023-05-10T08:28:44.410Z,71.00
2023-05-10T08:31:11.232Z,70.80
2023-05-10T08:33:38.044Z,71.30
2023-05-10T08:36:05.082Z,70.70
2023-05-10T08:38:31.995Z,70.10
2023-05-10T08:41:00.044Z,69.40
2023-05-10T08:43:31.521Z,68.80
2023-05-10T08:46:02.252Z,69.20
2023-05-10T08:48:30.618Z,68.10
2023-05-10T08:51:00.720Z,68.00
2023-05-10T08:53:30.058Z,66.80
2023-05-10T08:55:57.142Z,67.40
2023-05-10T08:58:24.059Z,67.10
2023-05-10T09:00:54.533Z,67.90
2023-05-10T09:03:21.797Z,67.80
2023-05-10T09:05:49.769Z,69.50
2023-05-10T09:08:19.804Z,70.40
2023-05-10T09:10:48.519Z,70.70
2023-05-10T09:13:16.704Z,71.50
2023-05-10T09:15:45.105Z,71.50
2023-05-10T09:18:12.469Z,72.00
2023-05-10T09:20:39.345Z,71.80
2023-05-10T09:23:06.815Z,69.80
2023-05-10T09:25:36.859Z,70.00
2023-05-10T09:28:06.781Z,69.20
2023-05-10T09:30:33.605Z,69.40
2023-05-10T09:33:01.818Z,68.10
2023-05-10T09:35:31.256Z,68.60
2023-05-10T09:38:04.549Z,68.30
2023-05-10T09:40:31.942Z,67.20
2023-05-10T09:43:07.886Z,67.70
2023-05-10T09:45:38.597Z,67.60
2023-05-10T09:48:06.971Z,67.40
2023-05-10T09:50:35.137Z,66.70
2023-05-10T09:53:04.627Z,67.40
2023-05-10T09:55:40.862Z,68.00
2023-05-10T09:58:11.473Z,67.90
2023-05-10T10:00:41.374Z,68.20
2023-05-10T10:03:16.450Z,67.60
2023-05-10T10:05:44.678Z,68.30
2023-05-10T10:08:13.190Z,68.20
2023-05-10T10:10:47.045Z,68.20
2023-05-10T10:13:14.575Z,68.20
2023-05-10T10:15:42.751Z,68.60
2023-05-10T10:18:15.131Z,68.60
2023-05-10T10:20:43.534Z,69.20
2023-05-10T10:23:10.773Z,69.10
2023-05-10T10:25:39.131Z,70.40
2023-05-10T10:28:18.204Z,69.90
2023-05-10T10:30:49.197Z,70.50
2023-05-10T10:33:55.471Z,71.40
2023-05-10T10:36:22.781Z,70.90
2023-05-10T10:38:49.469Z,72.10
2023-05-10T10:41:34.859Z,73.40
2023-05-10T10:44:27.410Z,74.30
2023-05-10T10:47:25.852Z,74.40
2023-05-10T10:50:02.094Z,74.90
2023-05-10T10:52:50.626Z,75.50
2023-05-10T10:55:25.971Z,75.70
2023-05-10T10:58:01.120Z,75.30
2023-05-10T11:00:36.524Z,75.40
2023-05-10T11:03:09.633Z,75.20
2023-05-10T11:05:41.522Z,75.10
2023-05-10T11:08:14.607Z,75.40
2023-05-10T11:10:50.361Z,75.60
2023-05-10T11:13:17.117Z,75.40
2023-05-10T11:15:51.158Z,75.40
2023-05-10T11:18:25.850Z,75.10
2023-05-10T11:20:53.502Z,75.30
2023-05-10T11:23:21.082Z,75.50
2023-05-10T11:25:49.746Z,76.00
2023-05-10T11:28:19.261Z,75.70
2023-05-10T11:30:46.861Z,75.50
2023-05-10T11:33:18.678Z,75.50
2023-05-10T11:35:47.129Z,75.80
2023-05-10T11:38:14.990Z,75.50
2023-05-10T11:40:42.327Z,75.30
2023-05-10T11:43:11.376Z,74.30
2023-05-10T11:45:38.355Z,74.00
2023-05-10T11:48:05.445Z,73.40
2023-05-10T11:50:32.419Z,73.10
2023-05-10T11:53:00.088Z,73.90
2023-05-10T11:55:26.956Z,73.60
2023-05-10T11:57:55.547Z,73.40
2023-05-10T12:00:22.746Z,72.80
2023-05-10T12:02:50.139Z,72.00
2023-05-10T12:05:17.657Z,71.40
2023-05-10T12:07:44.576Z,71.40
2023-05-10T12:10:16.006Z,71.70
2023-05-10T12:12:48.435Z,72.40
2023-05-10T12:15:25.788Z,73.00
2023-05-10T12:17:52.833Z,71.80
2023-05-10T12:20:24.943Z,72.40
2023-05-10T12:22:54.234Z,72.20
2023-05-10T12:25:22.823Z,72.80
2023-05-10T12:27:51.823Z,72.90
2023-05-10T12:30:29.206Z,73.30
2023-05-10T12:33:02.181Z,73.30
2023-05-10T12:35:32.345Z,74.70
2023-05-10T12:37:59.610Z,75.80
2023-05-10T12:40:26.601Z,75.60
2023-05-10T12:42:53.627Z,75.70
2023-05-10T12:45:20.628Z,75.90
2023-05-10T12:47:47.548Z,75.30
2023-05-10T12:50:14.425Z,75.80
2023-05-10T12:52:41.286Z,76.00
2023-05-10T12:55:08.609Z,76.30
2023-05-10T12:57:35.433Z,76.40
2023-05-10T13:00:02.149Z,76.20
2023-05-10T13:02:28.894Z,76.60
2023-05-10T13:04:55.756Z,76.80
2023-05-10T13:07:22.527Z,76.60
2023-05-10T13:09:49.217Z,76.30
2023-05-10T13:12:16.415Z,76.10
2023-05-10T13:14:43.177Z,75.00
2023-05-10T13:17:10.135Z,74.70
2023-05-10T13:19:36.925Z,74.50
2023-05-10T13:22:04.074Z,73.80
2023-05-10T13:24:30.981Z,73.20
2023-05-10T13:26:57.715Z,70.70
2023-05-10T13:29:24.421Z,70.10
2023-05-10T13:31:51.329Z,70.90
2023-05-10T13:34:21.253Z,71.30
2023-05-10T13:36:49.267Z,70.70
2023-05-10T13:39:16.576Z,71.20
2023-05-10T13:41:43.472Z,71.50
2023-05-10T13:44:10.365Z,71.40
2023-05-10T13:46:37.179Z,72.40
2023-05-10T13:49:04.045Z,72.30
2023-05-10T13:51:32.536Z,71.40
2023-05-10T13:53:59.672Z,71.30
2023-05-10T13:56:26.419Z,70.50
2023-05-10T13:58:53.279Z,70.60
2023-05-10T14:01:20.280Z,70.10
2023-05-10T14:03:47.237Z,70.10
2023-05-10T14:06:14.129Z,71.70
2023-05-10T14:08:41.107Z,71.60
2023-05-10T14:11:08.506Z,71.60
2023-05-10T14:13:35.322Z,69.90
2023-05-10T14:16:02.372Z,69.20
2023-05-10T14:18:29.297Z,70.10
2023-05-10T14:20:58.530Z,70.20
2023-05-10T14:23:25.359Z,71.10
2023-05-10T14:25:53.103Z,72.10
2023-05-10T14:28:20.347Z,73.20
2023-05-10T14:30:47.833Z,73.90
2023-05-10T14:33:14.942Z,74.10
2023-05-10T14:35:41.658Z,73.80
2023-05-10T14:38:08.524Z,73.50
2023-05-10T14:40:35.424Z,73.80
2023-05-10T14:43:02.119Z,75.00
2023-05-10T14:45:28.914Z,75.00
2023-05-10T14:47:55.891Z,75.50
2023-05-10T14:50:35.868Z,75.10
2023-05-10T14:53:04.001Z,75.30
2023-05-10T14:55:31.065Z,73.70
2023-05-10T14:57:59.143Z,72.90
2023-05-10T15:00:26.280Z,72.60
2023-05-10T15:02:53.386Z,72.40
2023-05-10T15:05:20.441Z,72.50
2023-05-10T15:07:47.826Z,73.10
2023-05-10T15:10:14.976Z,73.10
2023-05-10T15:12:41.852Z,74.40
2023-05-10T15:15:08.865Z,74.10
2023-05-10T15:17:35.660Z,74.50
2023-05-10T15:20:04.394Z,74.10
2023-05-10T15:22:34.198Z,74.50
2023-05-10T15:25:01.288Z,75.20
2023-05-10T15:27:28.082Z,74.40
2023-05-10T15:29:54.857Z,73.50
2023-05-10T15:32:21.675Z,73.30
2023-05-10T15:34:48.467Z,73.10
2023-05-10T15:37:15.251Z,72.80
2023-05-10T15:39:42.120Z,71.80
2023-05-10T15:42:09.018Z,72.80
2023-05-10T15:44:36.098Z,72.00
2023-05-10T15:47:03.769Z,71.60
2023-05-10T15:49:30.701Z,71.20
2023-05-10T15:51:57.513Z,71.50
2023-05-10T15:54:24.316Z,72.10
2023-05-10T15:56:51.167Z,72.90
2023-05-10T15:59:17.891Z,73.40
2023-05-10T16:01:44.767Z,74.30
2023-05-10T16:04:11.595Z,73.80
2023-05-10T16:06:38.529Z,74.50
2023-05-10T16:09:05.314Z,75.10
2023-05-10T16:11:32.199Z,75.00
2023-05-10T16:13:59.630Z,74.90
2023-05-10T16:16:26.596Z,74.20
2023-05-10T16:18:53.448Z,73.30
2023-05-10T16:21:20.834Z,72.50
2023-05-10T16:23:47.788Z,72.30
2023-05-10T16:26:14.632Z,72.80
2023-05-10T16:28:41.455Z,72.50
2023-05-10T16:31:08.297Z,72.10
2023-05-10T16:33:35.482Z,72.00
2023-05-10T16:36:02.714Z,73.50
2023-05-10T16:38:29.721Z,73.60
2023-05-10T16:40:57.421Z,72.90
2023-05-10T16:43:26.028Z,73.00
2023-05-10T16:45:53.175Z,73.30
2023-05-10T16:48:19.923Z,74.20
2023-05-10T16:50:46.825Z,75.30
2023-05-10T16:53:14.151Z,75.30
2023-05-10T16:55:40.965Z,75.50
2023-05-10T16:58:07.777Z,75.80
2023-05-10T17:00:35.056Z,75.60
2023-05-10T17:03:02.075Z,74.60
2023-05-10T17:05:29.681Z,76.20
2023-05-10T17:07:56.738Z,75.90
2023-05-10T17:10:23.529Z,75.90
2023-05-10T17:12:50.722Z,76.10
2023-05-10T17:15:19.131Z,75.90
2023-05-10T17:17:49.126Z,76.40
2023-05-10T17:20:16.623Z,76.10
2023-05-10T17:22:43.378Z,76.00
2023-05-10T17:25:10.703Z,75.50
2023-05-10T17:27:38.357Z,76.30
2023-05-10T17:30:06.570Z,75.90
2023-05-10T17:32:34.112Z,76.00
2023-05-10T17:35:01.030Z,76.00
2023-05-10T17:37:27.806Z,75.30
2023-05-10T17:39:54.614Z,75.60
2023-05-10T17:42:22.500Z,76.00
2023-05-10T17:44:49.247Z,75.80
2023-05-10T17:47:16.099Z,75.80
2023-05-10T17:49:42.946Z,76.30
2023-05-10T17:52:09.817Z,76.10
2023-05-10T17:54:36.697Z,75.90
2023-05-10T17:57:03.914Z,76.20
2023-05-10T17:59:30.845Z,76.30
2023-05-10T18:01:57.885Z,76.10
2023-05-10T18:04:26.073Z,76.10
2023-05-10T18:07:03.400Z,76.30
2023-05-10T18:09:30.511Z,76.70
2023-05-10T18:11:57.363Z,75.70
2023-05-10T18:14:39.783Z,76.00
2023-05-10T18:17:07.843Z,75.60
2023-05-10T18:19:35.015Z,76.20
2023-05-10T18:22:05.067Z,75.90
2023-05-10T18:24:38.486Z,75.90
2023-05-10T18:27:08.747Z,77.40
2023-05-10T18:29:36.441Z,78.10
2023-05-10T18:32:03.707Z,78.30
2023-05-10T18:34:30.564Z,78.20
2023-05-10T18:36:57.702Z,77.90
2023-05-10T18:39:25.036Z,78.10
2023-05-10T18:41:52.104Z,78.40
2023-05-10T18:44:19.153Z,78.70
2023-05-10T18:46:46.458Z,78.40
2023-05-10T18:49:13.525Z,78.60
2023-05-10T18:51:40.506Z,78.90
2023-05-10T18:54:07.534Z,78.80
2023-05-10T18:56:34.413Z,78.30
2023-05-10T18:59:01.520Z,78.50
2023-05-10T19:01:28.485Z,78.80
2023-05-10T19:03:55.417Z,78.80
2023-05-10T19:06:22.503Z,78.20
2023-05-10T19:08:50.448Z,78.10
2023-05-10T19:11:17.541Z,78.40
2023-05-10T19:13:45.368Z,78.50
2023-05-10T19:16:15.299Z,78.70
2023-05-10T19:18:44.993Z,78.60
2023-05-10T19:21:12.193Z,77.80
2023-05-10T19:23:40.231Z,78.20
2023-05-10T19:26:10.690Z,78.00
2023-05-10T19:28:38.095Z,78.20
2023-05-10T19:31:07.376Z,77.70
2023-05-10T19:33:34.436Z,78.00
2023-05-10T19:36:02.859Z,78.00
2023-05-10T19:38:29.880Z,77.80
2023-05-10T19:41:01.009Z,77.70
2023-05-10T19:43:40.097Z,77.90
2023-05-10T19:46:09.059Z,77.50
2023-05-10T19:48:36.386Z,77.50
2023-05-10T19:51:07.711Z,77.60
2023-05-10T19:53:35.454Z,76.90
2023-05-10T19:56:06.674Z,76.60
2023-05-10T19:58:34.062Z,76.60
2023-05-10T20:01:01.038Z,76.70
2023-05-10T20:03:30.651Z,76.90
2023-05-10T20:05:58.719Z,76.90
2023-05-10T20:08:26.810Z,76.70
2023-05-10T20:10:53.831Z,77.20
2023-05-10T20:13:20.700Z,76.90
2023-05-10T20:15:48.669Z,76.90
2023-05-10T20:18:16.683Z,77.00
2023-05-10T20:20:45.187Z,77.50
2023-05-10T20:23:13.974Z,77.50
2023-05-10T20:25:41.910Z,77.70
2023-05-10T20:28:10.214Z,77.60
2023-05-10T20:30:36.985Z,77.60
2023-05-10T20:33:05.200Z,77.60
2023-05-10T20:35:33.854Z,77.80
2023-05-10T20:38:02.214Z,77.10
2023-05-10T20:40:29.002Z,77.20
2023-05-10T20:42:55.832Z,77.60
2023-05-10T20:45:23.449Z,77.20
2023-05-10T20:47:50.854Z,77.30
2023-05-10T20:50:18.040Z,76.80
2023-05-10T20:52:45.580Z,77.20
2023-05-10T20:55:12.829Z,77.00
2023-05-10T20:57:40.064Z,76.70
2023-05-10T21:00:07.671Z,77.00
2023-05-10T21:02:34.479Z,77.10
2023-05-10T21:05:01.469Z,77.00
2023-05-10T21:07:28.395Z,77.00
2023-05-10T21:09:55.437Z,77.30
2023-05-10T21:12:22.238Z,76.90
2023-05-10T21:14:50.014Z,77.80
2023-05-10T21:17:18.156Z,77.70
2023-05-10T21:19:46.819Z,77.80
2023-05-10T21:22:13.835Z,77.90
2023-05-10T21:24:40.927Z,78.00
2023-05-10T21:27:09.139Z,78.00
2023-05-10T21:29:35.937Z,78.10
2023-05-10T21:32:02.805Z,78.30
2023-05-10T21:34:29.912Z,78.10
2023-05-10T21:36:56.718Z,78.40
2023-05-10T21:39:23.490Z,78.80
2023-05-10T21:41:50.342Z,78.30
2023-05-10T21:44:17.085Z,78.60
2023-05-10T21:46:44.326Z,79.10
2023-05-10T21:49:11.213Z,79.10
2023-05-10T21:51:37.968Z,78.60
2023-05-10T21:54:05.006Z,79.10
2023-05-10T21:56:31.923Z,78.90
2023-05-10T21:58:58.670Z,79.10
2023-05-10T22:01:25.957Z,78.90
2023-05-10T22:03:52.765Z,79.20
2023-05-10T22:06:19.664Z,79.00
2023-05-10T22:08:46.447Z,78.90
2023-05-10T22:11:13.260Z,79.00
2023-05-10T22:13:40.075Z,79.50
2023-05-10T22:16:06.997Z,79.20
2023-05-10T22:18:33.775Z,79.30
2023-05-10T22:21:00.638Z,79.30
2023-05-10T22:23:27.629Z,79.30
2023-05-10T22:25:54.348Z,79.40
2023-05-10T22:28:21.404Z,79.50
2023-05-10T22:30:48.453Z,79.60
2023-05-10T22:33:15.291Z,79.20
2023-05-10T22:35:42.069Z,79.30
2023-05-10T22:38:08.791Z,78.80
2023-05-10T22:40:35.556Z,79.10
2023-05-10T22:43:02.745Z,78.90
2023-05-10T22:45:29.570Z,78.90
2023-05-10T22:47:56.710Z,79.10
2023-05-10T22:50:23.834Z,78.90
2023-05-10T22:52:50.660Z,79.20
2023-05-10T22:55:17.790Z,78.60
2023-05-10T22:57:44.615Z,78.80
2023-05-10T23:00:12.125Z,78.50
2023-05-10T23:02:39.491Z,78.30
2023-05-10T23:05:07.447Z,78.40
2023-05-10T23:07:34.539Z,78.60
2023-05-10T23:10:01.404Z,78.50
2023-05-10T23:12:28.233Z,77.90
2023-05-10T23:14:56.570Z,78.10
2023-05-10T23:17:23.647Z,78.30
2023-05-10T23:19:50.546Z,78.40
2023-05-10T23:22:17.530Z,78.80
2023-05-10T23:24:44.374Z,78.80
2023-05-10T23:27:11.470Z,78.60
2023-05-10T23:29:38.245Z,78.20
2023-05-10T23:32:05.524Z,78.20
2023-05-10T23:34:32.522Z,78.10
2023-05-10T23:36:59.564Z,78.20
2023-05-10T23:39:26.360Z,78.40
2023-05-10T23:41:53.356Z,78.60
2023-05-10T23:44:20.252Z,78.60
2023-05-10T23:46:47.087Z,78.50
2023-05-10T23:49:13.828Z,78.40
2023-05-10T23:51:40.671Z,78.50
2023-05-10T23:54:07.493Z,78.70
2023-05-10T23:56:34.382Z,79.00
2023-05-10T23:59:01.203Z,78.70
